createdAt,value
2023-05-16T00:01:49.868Z,12.31
2023-05-16T00:04:53.337Z,12.15
2023-05-16T00:07:55.948Z,12.05
2023-05-16T00:10:58.814Z,11.87
2023-05-16T00:14:01.803Z,11.86
2023-05-16T00:17:11.758Z,11.88
2023-05-16T00:20:17.293Z,11.89
2023-05-16T00:23:20.448Z,11.91
2023-05-16T00:26:23.096Z,11.94
2023-05-16T00:29:26.453Z,11.98
2023-05-16T00:32:29.097Z,11.92
2023-05-16T00:35:32.001Z,11.99
2023-05-16T00:38:34.661Z,12.01
2023-05-16T00:41:38.963Z,12.08
2023-05-16T00:44:41.604Z,12.11
2023-05-16T00:47:44.678Z,12.17
2023-05-16T00:50:47.417Z,12.15
2023-05-16T00:53:50.550Z,12.23
2023-05-16T00:56:54.685Z,12.23
2023-05-16T00:59:57.959Z,12.23
2023-05-16T01:03:01.120Z,12.27
2023-05-16T01:06:04.199Z,12.19
2023-05-16T01:09:08.034Z,12.25
2023-05-16T01:12:35.831Z,12.20
2023-05-16T01:15:59.996Z,12.13
2023-05-16T01:19:31.135Z,12.12
2023-05-16T01:22:49.045Z,12.08
2023-05-16T01:26:11.994Z,12.03
2023-05-16T01:29:16.374Z,12.03
2023-05-16T01:32:20.517Z,11.99
2023-05-16T01:35:24.068Z,12.00
2023-05-16T01:38:38.720Z,11.91
2023-05-16T01:41:55.668Z,11.99
2023-05-16T01:45:18.802Z,11.88
2023-05-16T01:48:30.941Z,11.97
2023-05-16T01:51:38.784Z,11.95
2023-05-16T01:54:45.552Z,11.93
2023-05-16T01:57:49.829Z,11.92
2023-05-16T02:01:01.331Z,11.91
2023-05-16T02:04:04.562Z,11.92
2023-05-16T02:07:07.612Z,11.89
2023-05-16T02:10:11.305Z,11.96
2023-05-16T02:13:14.267Z,11.97
2023-05-16T02:16:17.444Z,11.92
2023-05-16T02:19:20.791Z,12.02
2023-05-16T02:22:23.652Z,12.03
2023-05-16T02:25:26.753Z,11.98
2023-05-16T02:28:29.548Z,12.05
2023-05-16T02:31:33.938Z,12.05
2023-05-16T02:34:37.164Z,11.99
2023-05-16T02:37:41.110Z,11.93
2023-05-16T02:40:43.964Z,11.87
2023-05-16T02:43:47.201Z,11.73
2023-05-16T02:46:49.951Z,11.76
2023-05-16T02:49:53.304Z,11.63
2023-05-16T02:52:56.070Z,11.62
2023-05-16T02:55:58.948Z,11.66
2023-05-16T02:59:01.741Z,11.62
2023-05-16T03:02:05.010Z,11.62
2023-05-16T03:05:10.040Z,11.57
2023-05-16T03:08:13.020Z,11.60
2023-05-16T03:11:19.195Z,11.59
2023-05-16T03:14:22.073Z,11.62
2023-05-16T03:17:24.866Z,11.68
2023-05-16T03:20:27.794Z,11.70
2023-05-16T03:23:30.644Z,11.77
2023-05-16T03:26:33.746Z,11.73
2023-05-16T03:29:36.568Z,11.80
2023-05-16T03:32:42.359Z,11.84
2023-05-16T03:35:46.400Z,11.91
2023-05-16T03:38:49.392Z,11.98
2023-05-16T03:41:52.395Z,11.97
2023-05-16T03:44:55.353Z,11.99
2023-05-16T03:47:58.335Z,11.92
2023-05-16T03:51:01.325Z,11.99
2023-05-16T03:54:04.192Z,11.92
2023-05-16T03:57:07.442Z,12.00
2023-05-16T04:00:12.468Z,11.99
2023-05-16T04:03:15.585Z,11.92
2023-05-16T04:06:18.474Z,11.91
2023-05-16T04:09:21.537Z,11.97
2023-05-16T04:12:24.169Z,11.92
2023-05-16T04:15:27.243Z,11.82
2023-05-16T04:18:30.250Z,11.81
2023-05-16T04:21:33.540Z,11.80
2023-05-16T04:24:36.162Z,11.69
2023-05-16T04:27:39.103Z,11.68
2023-05-16T04:30:42.126Z,11.56
2023-05-16T04:33:45.208Z,11.53
2023-05-16T04:36:47.856Z,11.49
2023-05-16T04:39:51.612Z,11.46
2023-05-16T04:42:55.445Z,11.39
2023-05-16T04:46:01.348Z,11.52
2023-05-16T04:49:04.102Z,11.61
2023-05-16T04:52:08.491Z,11.67
2023-05-16T04:55:11.325Z,11.71
2023-05-16T04:58:14.463Z,11.66
2023-05-16T05:01:17.214Z,11.77
2023-05-16T05:04:20.123Z,11.82
2023-05-16T05:07:22.808Z,11.84
2023-05-16T05:10:27.659Z,11.91
2023-05-16T05:13:30.337Z,11.91
2023-05-16T05:16:33.349Z,12.02
2023-05-16T05:19:35.996Z,12.11
2023-05-16T05:22:39.090Z,12.12
2023-05-16T05:25:41.913Z,12.10
2023-05-16T05:28:53.884Z,12.11
2023-05-16T05:32:00.162Z,12.10
2023-05-16T05:35:03.993Z,12.14
2023-05-16T05:38:06.679Z,12.09
2023-05-16T05:41:09.734Z,12.16
2023-05-16T05:44:12.353Z,12.22
2023-05-16T05:47:15.627Z,12.30
2023-05-16T05:50:18.422Z,12.36
2023-05-16T05:53:21.490Z,12.49
2023-05-16T05:56:24.827Z,12.59
2023-05-16T05:59:27.729Z,12.65
2023-05-16T06:02:30.592Z,12.63
2023-05-16T06:05:33.650Z,12.61
2023-05-16T06:08:36.466Z,12.66
2023-05-16T06:11:39.904Z,12.66
2023-05-16T06:14:42.447Z,12.62
2023-05-16T06:17:45.530Z,12.66
2023-05-16T06:20:48.221Z,12.71
2023-05-16T06:23:51.209Z,12.68
2023-05-16T06:26:53.836Z,12.72
2023-05-16T06:29:56.808Z,12.71
2023-05-16T06:32:59.660Z,12.67
2023-05-16T06:36:02.654Z,12.68
2023-05-16T06:39:05.319Z,12.66
2023-05-16T06:42:08.272Z,12.62
2023-05-16T06:45:13.217Z,12.61
2023-05-16T06:48:16.286Z,12.52
2023-05-16T06:51:19.092Z,12.43
2023-05-16T06:54:22.130Z,12.49
2023-05-16T06:57:24.853Z,12.47
2023-05-16T07:00:27.696Z,12.52
2023-05-16T07:03:30.666Z,12.54
2023-05-16T07:06:33.799Z,12.58
2023-05-16T07:09:36.426Z,12.68
2023-05-16T07:12:42.155Z,12.66
2023-05-16T07:15:44.740Z,12.67
2023-05-16T07:18:47.738Z,12.74
2023-05-16T07:21:50.460Z,12.69
2023-05-16T07:24:57.186Z,12.68
2023-05-16T07:28:00.994Z,12.57
2023-05-16T07:31:03.968Z,12.57
2023-05-16T07:34:06.930Z,12.49
2023-05-16T07:37:13.078Z,12.43
2023-05-16T07:40:15.851Z,12.39
2023-05-16T07:43:18.843Z,12.28
2023-05-16T07:46:21.549Z,12.20
2023-05-16T07:49:24.446Z,12.22
2023-05-16T07:52:27.686Z,12.17
2023-05-16T07:55:30.730Z,12.20
2023-05-16T07:58:33.936Z,12.27
2023-05-16T08:01:37.572Z,12.30
2023-05-16T08:04:40.514Z,12.32
2023-05-16T08:07:43.140Z,12.31
2023-05-16T08:10:46.072Z,12.28
2023-05-16T08:13:49.659Z,12.25
2023-05-16T08:16:52.579Z,12.30
2023-05-16T08:19:56.261Z,12.33
2023-05-16T08:22:59.177Z,12.30
2023-05-16T08:26:03.113Z,12.25
2023-05-16T08:29:06.116Z,12.16
2023-05-16T08:32:11.100Z,12.15
2023-05-16T08:35:14.259Z,12.30
2023-05-16T08:38:17.011Z,12.38
2023-05-16T08:41:20.114Z,12.39
2023-05-16T08:44:22.915Z,12.41
2023-05-16T08:47:30.884Z,12.42
2023-05-16T08:50:33.604Z,12.46
2023-05-16T08:53:48.806Z,12.46
2023-05-16T08:56:51.928Z,12.49
2023-05-16T08:59:59.242Z,12.48
2023-05-16T09:03:02.981Z,12.49
2023-05-16T09:18:44.875Z,12.37
2023-05-16T09:21:48.584Z,12.28
2023-05-16T09:24:51.214Z,12.25
2023-05-16T09:27:55.979Z,12.23
2023-05-16T09:31:00.022Z,12.24
2023-05-16T09:34:03.330Z,12.24
2023-05-16T09:37:06.058Z,12.15
2023-05-16T09:40:10.578Z,12.27
2023-05-16T09:43:17.161Z,12.31
2023-05-16T09:46:27.671Z,12.30
2023-05-16T09:49:30.997Z,12.33
2023-05-16T09:52:34.132Z,12.27
2023-05-16T09:55:36.827Z,12.37
2023-05-16T09:58:41.196Z,12.39
2023-05-16T10:01:44.126Z,12.41
2023-05-16T10:04:47.311Z,12.44
2023-05-16T10:07:51.655Z,12.50
2023-05-16T10:10:57.132Z,12.48
2023-05-16T10:13:59.918Z,12.56
2023-05-16T10:17:05.307Z,12.52
2023-05-16T10:20:10.189Z,12.41
2023-05-16T10:23:18.520Z,12.47
2023-05-16T10:26:22.690Z,12.57
2023-05-16T10:29:26.844Z,12.56
2023-05-16T10:32:29.849Z,12.67
2023-05-16T10:35:34.369Z,12.74
2023-05-16T10:38:38.514Z,12.79
2023-05-16T10:41:42.642Z,12.80
2023-05-16T10:44:54.758Z,12.75
2023-05-16T10:48:07.031Z,12.72
2023-05-16T10:51:36.604Z,12.73
2023-05-16T10:54:44.696Z,12.75
2023-05-16T10:57:47.697Z,12.74
2023-05-16T11:01:13.068Z,12.72
2023-05-16T11:04:16.330Z,12.71
2023-05-16T11:07:21.375Z,12.72
2023-05-16T11:10:24.004Z,12.77
2023-05-16T11:13:27.016Z,12.79
2023-05-16T11:16:30.336Z,12.83
2023-05-16T11:19:33.382Z,12.87
2023-05-16T11:22:42.770Z,12.80
2023-05-16T11:25:46.944Z,13.04
2023-05-16T11:28:50.240Z,13.02
2023-05-16T11:31:53.452Z,13.11
2023-05-16T11:34:56.620Z,13.25
2023-05-16T11:37:59.540Z,13.24
2023-05-16T11:41:04.320Z,13.37
2023-05-16T11:44:09.721Z,13.42
2023-05-16T11:47:12.800Z,13.48
2023-05-16T11:50:18.104Z,13.63
2023-05-16T11:53:22.411Z,13.67
2023-05-16T11:56:25.473Z,13.86
2023-05-16T11:59:28.233Z,13.88
2023-05-16T12:02:32.582Z,14.02
2023-05-16T12:05:36.195Z,14.13
2023-05-16T12:08:39.027Z,14.23
2023-05-16T12:11:44.596Z,14.27
2023-05-16T12:14:47.872Z,14.25
2023-05-16T12:17:51.012Z,14.37
2023-05-16T12:20:54.035Z,14.44
2023-05-16T12:24:00.076Z,14.51
2023-05-16T12:27:02.701Z,14.41
2023-05-16T12:30:09.630Z,14.54
2023-05-16T12:33:14.386Z,14.57
2023-05-16T12:36:17.377Z,14.67
2023-05-16T12:39:20.459Z,15.00
2023-05-16T12:42:25.215Z,14.77
2023-05-16T12:45:28.534Z,14.66
2023-05-16T12:48:35.776Z,14.61
2023-05-16T12:51:38.785Z,14.84
2023-05-16T12:54:41.698Z,14.87
2023-05-16T12:57:45.485Z,14.78
2023-05-16T13:00:48.658Z,14.76
2023-05-16T13:03:51.383Z,15.16
2023-05-16T13:06:59.272Z,14.98
2023-05-16T13:10:03.091Z,14.82
2023-05-16T13:13:06.155Z,14.85
2023-05-16T13:16:10.351Z,15.00
2023-05-16T13:19:13.494Z,14.78
2023-05-16T13:22:16.337Z,14.63
2023-05-16T13:25:19.331Z,14.53
2023-05-16T13:28:22.096Z,14.41
2023-05-16T13:31:25.245Z,14.43
2023-05-16T13:34:28.103Z,14.34
2023-05-16T13:37:31.517Z,14.27
2023-05-16T13:40:34.168Z,14.21
2023-05-16T13:43:37.263Z,14.41
2023-05-16T13:46:40.063Z,14.58
2023-05-16T13:49:43.064Z,14.68
2023-05-16T13:52:47.568Z,14.89
2023-05-16T13:55:50.522Z,15.35
2023-05-16T14:02:02.267Z,15.88
2023-05-16T14:05:06.114Z,16.05
2023-05-16T14:08:08.802Z,16.12
2023-05-16T14:11:11.792Z,15.79
2023-05-16T14:14:14.479Z,15.71
2023-05-16T14:17:17.475Z,15.47
2023-05-16T14:20:20.190Z,15.49
2023-05-16T14:23:23.190Z,15.37
2023-05-16T14:26:26.648Z,15.46
2023-05-16T14:29:29.770Z,15.30
2023-05-16T14:32:32.719Z,15.27
2023-05-16T14:35:38.345Z,15.20
2023-05-16T14:38:41.086Z,15.23
2023-05-16T14:41:45.428Z,15.25
2023-05-16T14:44:48.126Z,15.36
2023-05-16T14:47:51.146Z,15.38
2023-05-16T14:50:53.940Z,15.46
2023-05-16T14:53:56.994Z,15.50
2023-05-16T14:57:00.273Z,15.43
2023-05-16T15:00:03.375Z,15.40
2023-05-16T15:03:06.083Z,15.18
2023-05-16T15:06:09.234Z,15.04
2023-05-16T15:09:11.887Z,15.05
2023-05-16T15:12:16.050Z,14.84
2023-05-16T15:15:18.779Z,14.73
2023-05-16T15:18:22.095Z,14.83
2023-05-16T15:21:24.730Z,14.79
2023-05-16T15:24:28.251Z,14.81
2023-05-16T15:27:31.008Z,14.83
2023-05-16T15:30:34.021Z,14.82
2023-05-16T15:33:36.735Z,14.66
2023-05-16T15:36:39.775Z,14.75
2023-05-16T15:39:42.515Z,14.63
2023-05-16T15:42:45.608Z,14.73
2023-05-16T15:45:48.333Z,14.69
2023-05-16T15:48:51.266Z,14.68
2023-05-16T15:51:54.491Z,14.58
2023-05-16T15:54:57.499Z,14.73
2023-05-16T15:58:00.258Z,14.74
2023-05-16T16:01:03.310Z,14.75
2023-05-16T16:04:07.402Z,14.79
2023-05-16T16:07:11.405Z,14.69
2023-05-16T16:10:14.751Z,14.75
2023-05-16T16:13:17.538Z,14.88
2023-05-16T16:16:20.702Z,14.84
2023-05-16T16:19:23.652Z,14.76
2023-05-16T16:22:26.803Z,14.84
2023-05-16T16:25:29.876Z,14.86
2023-05-16T16:28:33.549Z,14.80
2023-05-16T16:31:36.733Z,15.04
2023-05-16T16:34:39.989Z,15.16
2023-05-16T16:37:48.906Z,15.16
2023-05-16T16:40:58.108Z,15.07
2023-05-16T16:44:01.091Z,15.14
2023-05-16T16:47:04.456Z,15.19
2023-05-16T16:50:08.448Z,15.16
2023-05-16T16:53:12.029Z,15.17
2023-05-16T16:56:15.001Z,15.18
2023-05-16T16:59:18.449Z,15.00
2023-05-16T17:02:21.536Z,15.11
2023-05-16T17:05:24.899Z,15.10
2023-05-16T17:08:28.009Z,15.08
2023-05-16T17:11:31.834Z,15.03
2023-05-16T17:14:35.091Z,14.97
2023-05-16T17:17:38.303Z,14.96
2023-05-16T17:20:41.859Z,14.88
2023-05-16T17:23:45.692Z,14.99
2023-05-16T17:26:48.795Z,15.01
2023-05-16T17:29:52.739Z,15.02
2023-05-16T17:32:55.997Z,15.03
2023-05-16T17:35:59.400Z,15.03
2023-05-16T17:39:02.637Z,15.02
2023-05-16T17:42:06.767Z,15.02
2023-05-16T17:45:15.548Z,15.02
2023-05-16T17:48:19.117Z,14.97
2023-05-16T17:51:22.305Z,14.98
2023-05-16T17:54:27.289Z,14.97
2023-05-16T17:57:30.357Z,14.96
2023-05-16T18:00:33.876Z,14.89
2023-05-16T18:03:37.481Z,14.83
2023-05-16T18:06:40.757Z,14.74
2023-05-16T18:09:45.202Z,14.79
2023-05-16T18:12:48.616Z,14.64
2023-05-16T18:15:52.701Z,14.67
2023-05-16T18:18:56.082Z,14.75
2023-05-16T18:22:01.107Z,14.74
2023-05-16T18:25:06.508Z,14.67
2023-05-16T18:28:10.074Z,14.75
2023-05-16T18:31:13.289Z,14.75
2023-05-16T18:34:16.743Z,14.77
2023-05-16T18:37:19.989Z,14.62
2023-05-16T18:40:26.570Z,14.76
2023-05-16T18:43:30.037Z,14.66
2023-05-16T18:46:33.511Z,14.75
2023-05-16T18:49:39.245Z,14.67
2023-05-16T18:52:42.652Z,14.75
2023-05-16T18:55:46.220Z,14.76
2023-05-16T18:58:49.641Z,14.73
2023-05-16T19:01:52.791Z,14.71
2023-05-16T19:04:58.163Z,14.70
2023-05-16T19:08:02.029Z,14.69
2023-05-16T19:11:05.521Z,14.68
2023-05-16T19:14:08.743Z,14.70
2023-05-16T19:17:12.780Z,14.69
2023-05-16T19:20:16.038Z,14.68
2023-05-16T19:23:19.435Z,14.67
2023-05-16T19:26:23.250Z,14.66
2023-05-16T19:29:26.943Z,14.50
2023-05-16T19:32:30.394Z,14.66
2023-05-16T19:35:33.842Z,14.64
2023-05-16T19:38:37.012Z,14.66
2023-05-16T19:41:40.567Z,14.61
2023-05-16T19:44:43.352Z,14.54
2023-05-16T19:47:46.482Z,14.51
2023-05-16T19:50:49.232Z,14.39
2023-05-16T19:53:52.257Z,14.09
2023-05-16T19:56:55.661Z,13.98
2023-05-16T19:59:58.666Z,13.79
2023-05-16T20:03:01.608Z,13.76
2023-05-16T20:06:05.167Z,13.59
2023-05-16T20:09:08.020Z,13.41
2023-05-16T20:12:11.107Z,13.37
2023-05-16T20:15:13.948Z,13.31
2023-05-16T20:18:17.055Z,13.22
2023-05-16T20:21:19.758Z,13.21
2023-05-16T20:24:22.878Z,13.18
2023-05-16T20:27:25.774Z,13.15
2023-05-16T20:30:29.307Z,13.11
2023-05-16T20:33:32.093Z,13.06
2023-05-16T20:36:35.746Z,13.08
2023-05-16T20:39:39.085Z,13.06
2023-05-16T20:42:42.045Z,13.03
2023-05-16T20:45:45.023Z,13.06
2023-05-16T20:48:48.006Z,13.17
2023-05-16T20:51:50.774Z,13.20
2023-05-16T20:54:53.904Z,13.13
2023-05-16T20:57:56.756Z,13.17
2023-05-16T21:00:59.716Z,13.16
2023-05-16T21:04:02.598Z,13.17
2023-05-16T21:07:08.148Z,13.10
2023-05-16T21:10:11.309Z,13.14
2023-05-16T21:13:14.285Z,13.03
2023-05-16T21:16:16.912Z,13.04
2023-05-16T21:19:19.956Z,13.11
2023-05-16T21:22:22.666Z,12.93
2023-05-16T21:25:25.726Z,12.86
2023-05-16T21:28:29.882Z,12.96
2023-05-16T21:31:32.973Z,12.93
2023-05-16T21:34:35.884Z,12.90
2023-05-16T21:37:38.878Z,12.88
2023-05-16T21:40:41.573Z,12.88
2023-05-16T21:43:44.518Z,12.73
2023-05-16T21:46:47.231Z,12.85
2023-05-16T21:49:50.201Z,12.80
2023-05-16T21:52:52.824Z,12.87
2023-05-16T21:55:55.861Z,12.84
2023-05-16T21:58:58.532Z,12.84
2023-05-16T22:02:01.569Z,12.83
2023-05-16T22:05:05.238Z,12.84
2023-05-16T22:08:08.118Z,12.72
2023-05-16T22:11:11.553Z,12.86
2023-05-16T22:14:14.324Z,12.85
2023-05-16T22:17:19.508Z,12.85
2023-05-16T22:20:22.287Z,12.73
2023-05-16T22:23:25.471Z,12.79
2023-05-16T22:26:28.115Z,12.69
2023-05-16T22:29:37.812Z,12.86
2023-05-16T22:32:40.571Z,12.85
2023-05-16T22:35:43.579Z,12.82
2023-05-16T22:38:46.255Z,12.92
2023-05-16T22:41:49.155Z,12.90
2023-05-16T22:44:51.827Z,12.89
2023-05-16T22:47:54.744Z,12.88
2023-05-16T22:50:57.938Z,12.77
2023-05-16T22:54:00.921Z,12.84
2023-05-16T22:57:03.689Z,12.82
2023-05-16T23:00:08.348Z,12.80
2023-05-16T23:03:11.271Z,12.76
2023-05-16T23:06:14.388Z,12.75
2023-05-16T23:09:17.008Z,12.76
2023-05-16T23:12:21.357Z,12.74
2023-05-16T23:15:24.130Z,12.78
2023-05-16T23:18:27.196Z,12.82
2023-05-16T23:21:29.960Z,12.83
2023-05-16T23:24:32.938Z,12.77
2023-05-16T23:27:35.933Z,12.81
2023-05-16T23:30:38.858Z,12.80
2023-05-16T23:33:41.521Z,12.79
2023-05-16T23:36:44.526Z,12.80
2023-05-16T23:39:47.176Z,12.71
2023-05-16T23:42:50.117Z,12.63
2023-05-16T23:45:55.512Z,12.60
2023-05-16T23:48:58.479Z,12.71
2023-05-16T23:52:01.113Z,12.59
2023-05-16T23:55:04.535Z,12.64
2023-05-16T23:58:07.289Z,12.58
